sensor_id;sensor_type;location;lat;lon;timestamp;pressure;altitude;pressure_sealevel;temperature
25514;BMP180;48128;54.242;10.280;2024-02-04T00:00:36;101130.00;;;6.00
25514;BMP180;48128;54.242;10.280;2024-02-04T00:03:04;101151.00;;;6.00
25514;BMP180;48128;54.242;10.280;2024-02-04T00:05:30;101130.00;;;6.00
25514;BMP180;48128;54.242;10.280;2024-02-04T00:07:57;101123.00;;;6.00
25514;BMP180;48128;54.242;10.280;2024-02-04T00:10:24;101118.00;;;5.90
25514;BMP180;48128;54.242;10.280;2024-02-04T00:12:51;101116.00;;;5.90
25514;BMP180;48128;54.242;10.280;2024-02-04T00:15:18;101108.00;;;5.90
25514;BMP180;48128;54.242;10.280;2024-02-04T00:17:46;101116.00;;;5.80
25514;BMP180;48128;54.242;10.280;2024-02-04T00:20:13;101116.00;;;5.80
25514;BMP180;48128;54.242;10.280;2024-02-04T00:22:40;101117.00;;;5.90
25514;BMP180;48128;54.242;10.280;2024-02-04T00:25:07;101109.00;;;5.90
25514;BMP180;48128;54.242;10.280;2024-02-04T00:27:38;101114.00;;;5.90
25514;BMP180;48128;54.242;10.280;2024-02-04T00:30:06;101113.00;;;5.90
25514;BMP180;48128;54.242;10.280;2024-02-04T00:32:33;101105.00;;;5.90
25514;BMP180;48128;54.242;10.280;2024-02-04T00:35:01;101091.00;;;5.90
25514;BMP180;48128;54.242;10.280;2024-02-04T00:37:29;101077.00;;;5.80
25514;BMP180;48128;54.242;10.280;2024-02-04T00:39:56;101074.00;;;5.80
25514;BMP180;48128;54.242;10.280;2024-02-04T00:42:23;101080.00;;;5.80
25514;BMP180;48128;54.242;10.280;2024-02-04T00:44:50;101076.00;;;5.70
25514;BMP180;48128;54.242;10.280;2024-02-04T00:47:17;101079.00;;;5.70
25514;BMP180;48128;54.242;10.280;2024-02-04T00:49:44;101091.00;;;5.60
25514;BMP180;48128;54.242;10.280;2024-02-04T00:52:11;101085.00;;;5.60
25514;BMP180;48128;54.242;10.280;2024-02-04T00:54:38;101082.00;;;5.60
25514;BMP180;48128;54.242;10.280;2024-02-04T00:57:05;101083.00;;;5.60
25514;BMP180;48128;54.242;10.280;2024-02-04T00:59:32;101075.00;;;5.60
25514;BMP180;48128;54.242;10.280;2024-02-04T01:01:58;101078.00;;;5.60
25514;BMP180;48128;54.242;10.280;2024-02-04T01:04:26;101073.00;;;5.60
25514;BMP180;48128;54.242;10.280;2024-02-04T01:06:53;101065.00;;;5.60
25514;BMP180;48128;54.242;10.280;2024-02-04T01:09:30;101059.00;;;5.60
25514;BMP180;48128;54.242;10.280;2024-02-04T01:12:00;101042.00;;;5.50
25514;BMP180;48128;54.242;10.280;2024-02-04T01:14:27;101048.00;;;5.50
25514;BMP180;48128;54.242;10.280;2024-02-04T01:16:57;101038.00;;;5.50
25514;BMP180;48128;54.242;10.280;2024-02-04T01:19:23;101039.00;;;5.50
25514;BMP180;48128;54.242;10.280;2024-02-04T01:21:51;101040.00;;;5.50
25514;BMP180;48128;54.242;10.280;2024-02-04T01:24:18;101048.00;;;5.50
25514;BMP180;48128;54.242;10.280;2024-02-04T01:26:45;101049.00;;;5.50
25514;BMP180;48128;54.242;10.280;2024-02-04T01:29:11;101057.00;;;5.60
25514;BMP180;48128;54.242;10.280;2024-02-04T01:31:38;101061.00;;;5.60
25514;BMP180;48128;54.242;10.280;2024-02-04T01:34:05;101057.00;;;5.60
25514;BMP180;48128;54.242;10.280;2024-02-04T01:36:33;101057.00;;;5.70
25514;BMP180;48128;54.242;10.280;2024-02-04T01:38:59;101064.00;;;5.70
25514;BMP180;48128;54.242;10.280;2024-02-04T01:41:26;101054.00;;;5.70
25514;BMP180;48128;54.242;10.280;2024-02-04T01:43:54;101064.00;;;5.70
25514;BMP180;48128;54.242;10.280;2024-02-04T01:46:21;101059.00;;;5.80
25514;BMP180;48128;54.242;10.280;2024-02-04T01:48:49;101062.00;;;5.80
25514;BMP180;48128;54.242;10.280;2024-02-04T01:51:16;101052.00;;;5.80
25514;BMP180;48128;54.242;10.280;2024-02-04T01:53:54;101045.00;;;5.90
25514;BMP180;48128;54.242;10.280;2024-02-04T01:56:49;101057.00;;;5.90
25514;BMP180;48128;54.242;10.280;2024-02-04T01:59:17;101048.00;;;6.00
25514;BMP180;48128;54.242;10.280;2024-02-04T02:01:44;101046.00;;;6.00
25514;BMP180;48128;54.242;10.280;2024-02-04T02:04:11;101046.00;;;6.00
25514;BMP180;48128;54.242;10.280;2024-02-04T02:06:39;101037.00;;;6.00
25514;BMP180;48128;54.242;10.280;2024-02-04T02:09:10;101041.00;;;6.00
25514;BMP180;48128;54.242;10.280;2024-02-04T02:11:42;101042.00;;;6.10
25514;BMP180;48128;54.242;10.280;2024-02-04T02:14:16;101043.00;;;6.10
25514;BMP180;48128;54.242;10.280;2024-02-04T02:16:45;101033.00;;;6.20
25514;BMP180;48128;54.242;10.280;2024-02-04T02:19:50;101047.00;;;6.20
25514;BMP180;48128;54.242;10.280;2024-02-04T02:22:45;101051.00;;;6.20
25514;BMP180;48128;54.242;10.280;2024-02-04T02:25:14;101044.00;;;6.30
25514;BMP180;48128;54.242;10.280;2024-02-04T02:27:51;101042.00;;;6.30
25514;BMP180;48128;54.242;10.280;2024-02-04T02:30:18;101045.00;;;6.30
25514;BMP180;48128;54.242;10.280;2024-02-04T02:32:46;101039.00;;;6.30
25514;BMP180;48128;54.242;10.280;2024-02-04T02:35:14;101036.00;;;6.30
25514;BMP180;48128;54.242;10.280;2024-02-04T02:38:11;101033.00;;;6.30
25514;BMP180;48128;54.242;10.280;2024-02-04T02:40:48;101035.00;;;6.40
25514;BMP180;48128;54.242;10.280;2024-02-04T02:43:15;101025.00;;;6.40
25514;BMP180;48128;54.242;10.280;2024-02-04T02:45:43;101018.00;;;6.40
25514;BMP180;48128;54.242;10.280;2024-02-04T02:48:11;101018.00;;;6.40
25514;BMP180;48128;54.242;10.280;2024-02-04T02:50:38;100999.00;;;6.40
25514;BMP180;48128;54.242;10.280;2024-02-04T02:53:05;100991.00;;;6.40
25514;BMP180;48128;54.242;10.280;2024-02-04T02:55:32;101002.00;;;6.40
25514;BMP180;48128;54.242;10.280;2024-02-04T02:57:59;101000.00;;;6.40
25514;BMP180;48128;54.242;10.280;2024-02-04T03:00:26;101017.00;;;6.40
25514;BMP180;48128;54.242;10.280;2024-02-04T03:02:53;101002.00;;;6.40
25514;BMP180;48128;54.242;10.280;2024-02-04T03:05:20;101014.00;;;6.50
25514;BMP180;48128;54.242;10.280;2024-02-04T03:07:48;101005.00;;;6.50
25514;BMP180;48128;54.242;10.280;2024-02-04T03:10:14;101003.00;;;6.50
25514;BMP180;48128;54.242;10.280;2024-02-04T03:12:41;100997.00;;;6.50
25514;BMP180;48128;54.242;10.280;2024-02-04T03:15:08;101003.00;;;6.50
25514;BMP180;48128;54.242;10.280;2024-02-04T03:17:35;100985.00;;;6.50
25514;BMP180;48128;54.242;10.280;2024-02-04T03:20:02;100989.00;;;6.50
25514;BMP180;48128;54.242;10.280;2024-02-04T03:22:30;100996.00;;;6.50
25514;BMP180;48128;54.242;10.280;2024-02-04T03:24:57;100977.00;;;6.50
25514;BMP180;48128;54.242;10.280;2024-02-04T03:27:23;100980.00;;;6.50
25514;BMP180;48128;54.242;10.280;2024-02-04T03:29:50;100981.00;;;6.50
25514;BMP180;48128;54.242;10.280;2024-02-04T03:32:17;100973.00;;;6.50
25514;BMP180;48128;54.242;10.280;2024-02-04T03:34:44;100971.00;;;6.50
25514;BMP180;48128;54.242;10.280;2024-02-04T03:37:11;100977.00;;;6.50
25514;BMP180;48128;54.242;10.280;2024-02-04T03:39:38;100985.00;;;6.50
25514;BMP180;48128;54.242;10.280;2024-02-04T03:42:05;100970.00;;;6.50
25514;BMP180;48128;54.242;10.280;2024-02-04T03:44:32;100990.00;;;6.60
25514;BMP180;48128;54.242;10.280;2024-02-04T03:46:59;100974.00;;;6.60
25514;BMP180;48128;54.242;10.280;2024-02-04T03:49:26;100979.00;;;6.60
25514;BMP180;48128;54.242;10.280;2024-02-04T03:51:53;100968.00;;;6.60
25514;BMP180;48128;54.242;10.280;2024-02-04T03:54:20;100977.00;;;6.60
25514;BMP180;48128;54.242;10.280;2024-02-04T03:56:47;100970.00;;;6.60
25514;BMP180;48128;54.242;10.280;2024-02-04T03:59:14;100955.00;;;6.60
25514;BMP180;48128;54.242;10.280;2024-02-04T04:01:46;100956.00;;;6.60
25514;BMP180;48128;54.242;10.280;2024-02-04T04:04:13;100955.00;;;6.60
25514;BMP180;48128;54.242;10.280;2024-02-04T04:06:42;100957.00;;;6.60
25514;BMP180;48128;54.242;10.280;2024-02-04T04:09:09;100947.00;;;6.60
25514;BMP180;48128;54.242;10.280;2024-02-04T04:11:37;100951.00;;;6.60
25514;BMP180;48128;54.242;10.280;2024-02-04T04:14:04;100942.00;;;6.60
25514;BMP180;48128;54.242;10.280;2024-02-04T04:16:31;100948.00;;;6.60
25514;BMP180;48128;54.242;10.280;2024-02-04T04:18:57;100958.00;;;6.60
25514;BMP180;48128;54.242;10.280;2024-02-04T04:21:27;100941.00;;;6.60
25514;BMP180;48128;54.242;10.280;2024-02-04T04:23:54;100922.00;;;6.60
25514;BMP180;48128;54.242;10.280;2024-02-04T04:26:21;100932.00;;;6.60
25514;BMP180;48128;54.242;10.280;2024-02-04T04:28:48;100927.00;;;6.50
25514;BMP180;48128;54.242;10.280;2024-02-04T04:31:15;100923.00;;;6.50
25514;BMP180;48128;54.242;10.280;2024-02-04T04:33:42;100931.00;;;6.50
25514;BMP180;48128;54.242;10.280;2024-02-04T04:36:10;100929.00;;;6.60
25514;BMP180;48128;54.242;10.280;2024-02-04T04:38:36;100929.00;;;6.60
25514;BMP180;48128;54.242;10.280;2024-02-04T04:41:03;100936.00;;;6.60
25514;BMP180;48128;54.242;10.280;2024-02-04T04:43:30;100936.00;;;6.60
25514;BMP180;48128;54.242;10.280;2024-02-04T04:45:57;100943.00;;;6.60
25514;BMP180;48128;54.242;10.280;2024-02-04T04:48:24;100935.00;;;6.60
25514;BMP180;48128;54.242;10.280;2024-02-04T04:50:52;100946.00;;;6.60
25514;BMP180;48128;54.242;10.280;2024-02-04T04:53:18;100923.00;;;6.50
25514;BMP180;48128;54.242;10.280;2024-02-04T04:55:45;100939.00;;;6.50
25514;BMP180;48128;54.242;10.280;2024-02-04T04:58:12;100919.00;;;6.50
25514;BMP180;48128;54.242;10.280;2024-02-04T05:00:39;100922.00;;;6.50
25514;BMP180;48128;54.242;10.280;2024-02-04T05:03:06;100919.00;;;6.50
25514;BMP180;48128;54.242;10.280;2024-02-04T05:05:33;100914.00;;;6.50
25514;BMP180;48128;54.242;10.280;2024-02-04T05:08:00;100917.00;;;6.50
25514;BMP180;48128;54.242;10.280;2024-02-04T05:10:27;100915.00;;;6.50
25514;BMP180;48128;54.242;10.280;2024-02-04T05:12:54;100915.00;;;6.50
25514;BMP180;48128;54.242;10.280;2024-02-04T05:15:21;100905.00;;;6.50
25514;BMP180;48128;54.242;10.280;2024-02-04T05:17:48;100899.00;;;6.50
25514;BMP180;48128;54.242;10.280;2024-02-04T05:20:15;100895.00;;;6.50
25514;BMP180;48128;54.242;10.280;2024-02-04T05:22:42;100893.00;;;6.50
25514;BMP180;48128;54.242;10.280;2024-02-04T05:25:09;100892.00;;;6.50
25514;BMP180;48128;54.242;10.280;2024-02-04T05:27:36;100881.00;;;6.50
25514;BMP180;48128;54.242;10.280;2024-02-04T05:30:08;100883.00;;;6.50
25514;BMP180;48128;54.242;10.280;2024-02-04T05:32:35;100880.00;;;6.50
25514;BMP180;48128;54.242;10.280;2024-02-04T05:35:02;100869.00;;;6.50
25514;BMP180;48128;54.242;10.280;2024-02-04T05:37:30;100880.00;;;6.50
25514;BMP180;48128;54.242;10.280;2024-02-04T05:39:57;100874.00;;;6.50
25514;BMP180;48128;54.242;10.280;2024-02-04T05:42:24;100863.00;;;6.50
25514;BMP180;48128;54.242;10.280;2024-02-04T05:44:51;100877.00;;;6.50
25514;BMP180;48128;54.242;10.280;2024-02-04T05:47:17;100882.00;;;6.60
25514;BMP180;48128;54.242;10.280;2024-02-04T05:49:44;100871.00;;;6.60
25514;BMP180;48128;54.242;10.280;2024-02-04T05:52:12;100886.00;;;6.50
25514;BMP180;48128;54.242;10.280;2024-02-04T05:54:39;100874.00;;;6.60
25514;BMP180;48128;54.242;10.280;2024-02-04T05:57:06;100869.00;;;6.60
25514;BMP180;48128;54.242;10.280;2024-02-04T05:59:34;100876.00;;;6.60
25514;BMP180;48128;54.242;10.280;2024-02-04T06:02:01;100875.00;;;6.60
25514;BMP180;48128;54.242;10.280;2024-02-04T06:04:28;100875.00;;;6.60
25514;BMP180;48128;54.242;10.280;2024-02-04T06:06:55;100883.00;;;6.60
25514;BMP180;48128;54.242;10.280;2024-02-04T06:09:22;100879.00;;;6.60
25514;BMP180;48128;54.242;10.280;2024-02-04T06:11:49;100875.00;;;6.60
25514;BMP180;48128;54.242;10.280;2024-02-04T06:14:16;100872.00;;;6.60
25514;BMP180;48128;54.242;10.280;2024-02-04T06:16:43;100871.00;;;6.60
25514;BMP180;48128;54.242;10.280;2024-02-04T06:19:10;100856.00;;;6.60
25514;BMP180;48128;54.242;10.280;2024-02-04T06:21:40;100871.00;;;6.60
25514;BMP180;48128;54.242;10.280;2024-02-04T06:24:07;100863.00;;;6.60
25514;BMP180;48128;54.242;10.280;2024-02-04T06:26:37;100855.00;;;6.60
25514;BMP180;48128;54.242;10.280;2024-02-04T06:29:04;100832.00;;;6.60
25514;BMP180;48128;54.242;10.280;2024-02-04T06:31:31;100829.00;;;6.60
25514;BMP180;48128;54.242;10.280;2024-02-04T06:33:58;100828.00;;;6.60
25514;BMP180;48128;54.242;10.280;2024-02-04T06:36:25;100833.00;;;6.50
25514;BMP180;48128;54.242;10.280;2024-02-04T06:38:52;100822.00;;;6.50
25514;BMP180;48128;54.242;10.280;2024-02-04T06:41:19;100833.00;;;6.50
25514;BMP180;48128;54.242;10.280;2024-02-04T06:43:46;100831.00;;;6.50
25514;BMP180;48128;54.242;10.280;2024-02-04T06:46:13;100826.00;;;6.60
25514;BMP180;48128;54.242;10.280;2024-02-04T06:48:40;100829.00;;;6.50
25514;BMP180;48128;54.242;10.280;2024-02-04T06:51:07;100831.00;;;6.50
25514;BMP180;48128;54.242;10.280;2024-02-04T06:53:34;100825.00;;;6.50
25514;BMP180;48128;54.242;10.280;2024-02-04T06:56:01;100833.00;;;6.50
25514;BMP180;48128;54.242;10.280;2024-02-04T06:58:28;100822.00;;;6.50
25514;BMP180;48128;54.242;10.280;2024-02-04T07:00:55;100839.00;;;6.50
25514;BMP180;48128;54.242;10.280;2024-02-04T07:03:22;100838.00;;;6.50
25514;BMP180;48128;54.242;10.280;2024-02-04T07:05:49;100816.00;;;6.50
25514;BMP180;48128;54.242;10.280;2024-02-04T07:08:16;100822.00;;;6.50
25514;BMP180;48128;54.242;10.280;2024-02-04T07:10:44;100812.00;;;6.50
25514;BMP180;48128;54.242;10.280;2024-02-04T07:13:11;100826.00;;;6.50
25514;BMP180;48128;54.242;10.280;2024-02-04T07:15:39;100808.00;;;6.50
25514;BMP180;48128;54.242;10.280;2024-02-04T07:18:06;100814.00;;;6.50
25514;BMP180;48128;54.242;10.280;2024-02-04T07:20:33;100811.00;;;6.50
25514;BMP180;48128;54.242;10.280;2024-02-04T07:23:00;100812.00;;;6.50
25514;BMP180;48128;54.242;10.280;2024-02-04T07:25:27;100818.00;;;6.50
25514;BMP180;48128;54.242;10.280;2024-02-04T07:27:54;100819.00;;;6.50
25514;BMP180;48128;54.242;10.280;2024-02-04T07:30:21;100824.00;;;6.50
25514;BMP180;48128;54.242;10.280;2024-02-04T07:32:48;100826.00;;;6.50
25514;BMP180;48128;54.242;10.280;2024-02-04T07:35:15;100824.00;;;6.50
25514;BMP180;48128;54.242;10.280;2024-02-04T07:37:42;100822.00;;;6.50
25514;BMP180;48128;54.242;10.280;2024-02-04T07:40:11;100829.00;;;6.50
25514;BMP180;48128;54.242;10.280;2024-02-04T07:42:38;100821.00;;;6.50
25514;BMP180;48128;54.242;10.280;2024-02-04T07:45:06;100810.00;;;6.50
25514;BMP180;48128;54.242;10.280;2024-02-04T07:47:36;100826.00;;;6.60
25514;BMP180;48128;54.242;10.280;2024-02-04T07:50:03;100831.00;;;6.60
25514;BMP180;48128;54.242;10.280;2024-02-04T07:52:30;100829.00;;;6.60
25514;BMP180;48128;54.242;10.280;2024-02-04T07:54:58;100820.00;;;6.60
25514;BMP180;48128;54.242;10.280;2024-02-04T07:57:25;100819.00;;;6.60
25514;BMP180;48128;54.242;10.280;2024-02-04T07:59:52;100811.00;;;6.60
25514;BMP180;48128;54.242;10.280;2024-02-04T08:02:19;100831.00;;;6.60
25514;BMP180;48128;54.242;10.280;2024-02-04T08:04:46;100826.00;;;6.60
25514;BMP180;48128;54.242;10.280;2024-02-04T08:07:13;100822.00;;;6.60
25514;BMP180;48128;54.242;10.280;2024-02-04T08:09:40;100808.00;;;6.60
25514;BMP180;48128;54.242;10.280;2024-02-04T08:12:07;100799.00;;;6.60
25514;BMP180;48128;54.242;10.280;2024-02-04T08:14:34;100797.00;;;6.60
25514;BMP180;48128;54.242;10.280;2024-02-04T08:17:01;100804.00;;;6.60
25514;BMP180;48128;54.242;10.280;2024-02-04T08:19:28;100807.00;;;6.60
25514;BMP180;48128;54.242;10.280;2024-02-04T08:21:55;100805.00;;;6.60
25514;BMP180;48128;54.242;10.280;2024-02-04T08:24:22;100807.00;;;6.60
25514;BMP180;48128;54.242;10.280;2024-02-04T08:26:49;100823.00;;;6.70
25514;BMP180;48128;54.242;10.280;2024-02-04T08:29:16;100809.00;;;6.70
25514;BMP180;48128;54.242;10.280;2024-02-04T08:31:43;100812.00;;;6.70
25514;BMP180;48128;54.242;10.280;2024-02-04T08:34:10;100809.00;;;6.70
25514;BMP180;48128;54.242;10.280;2024-02-04T08:36:37;100802.00;;;6.70
25514;BMP180;48128;54.242;10.280;2024-02-04T08:39:04;100803.00;;;6.70
25514;BMP180;48128;54.242;10.280;2024-02-04T08:41:31;100803.00;;;6.70
25514;BMP180;48128;54.242;10.280;2024-02-04T08:43:58;100782.00;;;6.70
25514;BMP180;48128;54.242;10.280;2024-02-04T08:46:29;100778.00;;;6.80
25514;BMP180;48128;54.242;10.280;2024-02-04T08:48:56;100787.00;;;6.80
25514;BMP180;48128;54.242;10.280;2024-02-04T08:51:23;100793.00;;;6.80
25514;BMP180;48128;54.242;10.280;2024-02-04T08:53:53;100786.00;;;6.80
25514;BMP180;48128;54.242;10.280;2024-02-04T08:56:20;100770.00;;;6.90
25514;BMP180;48128;54.242;10.280;2024-02-04T08:58:47;100776.00;;;6.90
25514;BMP180;48128;54.242;10.280;2024-02-04T09:01:13;100774.00;;;6.90
25514;BMP180;48128;54.242;10.280;2024-02-04T09:03:41;100775.00;;;6.90
25514;BMP180;48128;54.242;10.280;2024-02-04T09:06:08;100766.00;;;6.90
25514;BMP180;48128;54.242;10.280;2024-02-04T09:08:34;100767.00;;;6.90
25514;BMP180;48128;54.242;10.280;2024-02-04T09:11:01;100774.00;;;6.90
25514;BMP180;48128;54.242;10.280;2024-02-04T09:13:28;100776.00;;;6.90
25514;BMP180;48128;54.242;10.280;2024-02-04T09:15:55;100780.00;;;6.90
25514;BMP180;48128;54.242;10.280;2024-02-04T09:18:22;100766.00;;;7.00
25514;BMP180;48128;54.242;10.280;2024-02-04T09:20:49;100783.00;;;7.00
25514;BMP180;48128;54.242;10.280;2024-02-04T09:23:17;100776.00;;;7.00
25514;BMP180;48128;54.242;10.280;2024-02-04T09:25:44;100774.00;;;7.00
25514;BMP180;48128;54.242;10.280;2024-02-04T09:28:11;100793.00;;;7.00
25514;BMP180;48128;54.242;10.280;2024-02-04T09:30:38;100795.00;;;7.00
25514;BMP180;48128;54.242;10.280;2024-02-04T09:33:05;100787.00;;;7.10
25514;BMP180;48128;54.242;10.280;2024-02-04T09:35:33;100786.00;;;7.10
25514;BMP180;48128;54.242;10.280;2024-02-04T09:38:01;100777.00;;;7.10
25514;BMP180;48128;54.242;10.280;2024-02-04T09:40:28;100785.00;;;7.10
25514;BMP180;48128;54.242;10.280;2024-02-04T09:42:59;100779.00;;;7.20
25514;BMP180;48128;54.242;10.280;2024-02-04T09:45:27;100770.00;;;7.20
25514;BMP180;48128;54.242;10.280;2024-02-04T09:47:54;100785.00;;;7.20
25514;BMP180;48128;54.242;10.280;2024-02-04T09:50:22;100796.00;;;7.20
25514;BMP180;48128;54.242;10.280;2024-02-04T09:52:50;100785.00;;;7.20
25514;BMP180;48128;54.242;10.280;2024-02-04T09:55:19;100800.00;;;7.20
25514;BMP180;48128;54.242;10.280;2024-02-04T09:57:48;100793.00;;;7.20
25514;BMP180;48128;54.242;10.280;2024-02-04T10:00:15;100797.00;;;7.20
25514;BMP180;48128;54.242;10.280;2024-02-04T10:02:45;100805.00;;;7.30
25514;BMP180;48128;54.242;10.280;2024-02-04T10:05:12;100790.00;;;7.30
25514;BMP180;48128;54.242;10.280;2024-02-04T10:07:39;100789.00;;;7.30
25514;BMP180;48128;54.242;10.280;2024-02-04T10:10:07;100799.00;;;7.30
25514;BMP180;48128;54.242;10.280;2024-02-04T10:12:34;100800.00;;;7.30
25514;BMP180;48128;54.242;10.280;2024-02-04T10:15:02;100787.00;;;7.30
25514;BMP180;48128;54.242;10.280;2024-02-04T10:17:30;100790.00;;;7.30
25514;BMP180;48128;54.242;10.280;2024-02-04T10:19:57;100790.00;;;7.30
25514;BMP180;48128;54.242;10.280;2024-02-04T10:22:26;100798.00;;;7.30
25514;BMP180;48128;54.242;10.280;2024-02-04T10:24:53;100777.00;;;7.30
25514;BMP180;48128;54.242;10.280;2024-02-04T10:27:20;100793.00;;;7.30
25514;BMP180;48128;54.242;10.280;2024-02-04T10:29:57;100778.00;;;7.30
25514;BMP180;48128;54.242;10.280;2024-02-04T10:32:24;100773.00;;;7.30
25514;BMP180;48128;54.242;10.280;2024-02-04T10:34:52;100760.00;;;7.40
25514;BMP180;48128;54.242;10.280;2024-02-04T10:37:19;100758.00;;;7.40
25514;BMP180;48128;54.242;10.280;2024-02-04T10:39:46;100755.00;;;7.40
25514;BMP180;48128;54.242;10.280;2024-02-04T10:42:13;100758.00;;;7.40
25514;BMP180;48128;54.242;10.280;2024-02-04T10:44:41;100759.00;;;7.50
25514;BMP180;48128;54.242;10.280;2024-02-04T10:47:12;100757.00;;;7.50
25514;BMP180;48128;54.242;10.280;2024-02-04T10:49:41;100775.00;;;7.60
25514;BMP180;48128;54.242;10.280;2024-02-04T10:52:13;100757.00;;;7.60
25514;BMP180;48128;54.242;10.280;2024-02-04T10:54:40;100761.00;;;7.60
25514;BMP180;48128;54.242;10.280;2024-02-04T10:57:12;100757.00;;;7.60
25514;BMP180;48128;54.242;10.280;2024-02-04T10:59:40;100764.00;;;7.60
25514;BMP180;48128;54.242;10.280;2024-02-04T11:02:07;100758.00;;;7.70
25514;BMP180;48128;54.242;10.280;2024-02-04T11:04:34;100772.00;;;7.60
25514;BMP180;48128;54.242;10.280;2024-02-04T11:07:02;100768.00;;;7.70
25514;BMP180;48128;54.242;10.280;2024-02-04T11:09:30;100767.00;;;7.70
25514;BMP180;48128;54.242;10.280;2024-02-04T11:11:58;100765.00;;;7.60
25514;BMP180;48128;54.242;10.280;2024-02-04T11:14:26;100763.00;;;7.60
25514;BMP180;48128;54.242;10.280;2024-02-04T11:17:20;100758.00;;;7.70
25514;BMP180;48128;54.242;10.280;2024-02-04T11:27:52;100752.00;;;7.70
25514;BMP180;48128;54.242;10.280;2024-02-04T11:30:19;100754.00;;;7.70
25514;BMP180;48128;54.242;10.280;2024-02-04T11:32:46;100744.00;;;7.80
25514;BMP180;48128;54.242;10.280;2024-02-04T11:35:13;100737.00;;;7.70
25514;BMP180;48128;54.242;10.280;2024-02-04T11:37:41;100745.00;;;7.70
25514;BMP180;48128;54.242;10.280;2024-02-04T11:40:14;100743.00;;;7.70
25514;BMP180;48128;54.242;10.280;2024-02-04T11:42:43;100749.00;;;7.80
25514;BMP180;48128;54.242;10.280;2024-02-04T11:45:11;100751.00;;;7.80
25514;BMP180;48128;54.242;10.280;2024-02-04T11:47:39;100753.00;;;7.80
25514;BMP180;48128;54.242;10.280;2024-02-04T11:50:07;100747.00;;;7.80
25514;BMP180;48128;54.242;10.280;2024-02-04T11:52:37;100742.00;;;7.80
25514;BMP180;48128;54.242;10.280;2024-02-04T11:55:05;100758.00;;;7.80
25514;BMP180;48128;54.242;10.280;2024-02-04T11:57:34;100748.00;;;7.90
25514;BMP180;48128;54.242;10.280;2024-02-04T12:00:01;100744.00;;;7.80
25514;BMP180;48128;54.242;10.280;2024-02-04T12:02:32;100761.00;;;7.80
25514;BMP180;48128;54.242;10.280;2024-02-04T12:04:59;100755.00;;;7.90
25514;BMP180;48128;54.242;10.280;2024-02-04T12:07:27;100762.00;;;7.80
25514;BMP180;48128;54.242;10.280;2024-02-04T12:09:54;100763.00;;;7.90
25514;BMP180;48128;54.242;10.280;2024-02-04T12:12:22;100744.00;;;7.90
25514;BMP180;48128;54.242;10.280;2024-02-04T12:14:49;100740.00;;;7.90
25514;BMP180;48128;54.242;10.280;2024-02-04T12:17:17;100753.00;;;7.90
25514;BMP180;48128;54.242;10.280;2024-02-04T12:19:46;100770.00;;;7.90
25514;BMP180;48128;54.242;10.280;2024-02-04T12:22:14;100746.00;;;7.90
25514;BMP180;48128;54.242;10.280;2024-02-04T12:24:41;100764.00;;;7.90
25514;BMP180;48128;54.242;10.280;2024-02-04T12:27:09;100737.00;;;7.90
25514;BMP180;48128;54.242;10.280;2024-02-04T12:29:36;100740.00;;;7.90
25514;BMP180;48128;54.242;10.280;2024-02-04T12:32:04;100747.00;;;7.90
25514;BMP180;48128;54.242;10.280;2024-02-04T12:34:33;100747.00;;;7.90
25514;BMP180;48128;54.242;10.280;2024-02-04T12:37:01;100737.00;;;7.90
25514;BMP180;48128;54.242;10.280;2024-02-04T12:39:28;100747.00;;;7.90
25514;BMP180;48128;54.242;10.280;2024-02-04T12:41:56;100736.00;;;7.90
25514;BMP180;48128;54.242;10.280;2024-02-04T12:44:23;100737.00;;;7.90
25514;BMP180;48128;54.242;10.280;2024-02-04T12:46:52;100735.00;;;7.90
25514;BMP180;48128;54.242;10.280;2024-02-04T12:49:20;100738.00;;;7.90
25514;BMP180;48128;54.242;10.280;2024-02-04T12:51:49;100741.00;;;8.00
25514;BMP180;48128;54.242;10.280;2024-02-04T12:54:16;100728.00;;;7.90
25514;BMP180;48128;54.242;10.280;2024-02-04T12:56:52;100727.00;;;8.00
25514;BMP180;48128;54.242;10.280;2024-02-04T12:59:26;100723.00;;;8.00
25514;BMP180;48128;54.242;10.280;2024-02-04T13:01:55;100733.00;;;7.90
25514;BMP180;48128;54.242;10.280;2024-02-04T13:04:22;100715.00;;;8.00
25514;BMP180;48128;54.242;10.280;2024-02-04T13:06:50;100716.00;;;8.00
25514;BMP180;48128;54.242;10.280;2024-02-04T13:09:18;100721.00;;;8.00
25514;BMP180;48128;54.242;10.280;2024-02-04T13:11:45;100718.00;;;8.00
25514;BMP180;48128;54.242;10.280;2024-02-04T13:14:12;100716.00;;;8.00
25514;BMP180;48128;54.242;10.280;2024-02-04T13:16:39;100715.00;;;8.00
25514;BMP180;48128;54.242;10.280;2024-02-04T13:19:06;100718.00;;;8.00
25514;BMP180;48128;54.242;10.280;2024-02-04T13:21:34;100703.00;;;7.90
25514;BMP180;48128;54.242;10.280;2024-02-04T13:24:01;100700.00;;;8.00
25514;BMP180;48128;54.242;10.280;2024-02-04T13:26:28;100711.00;;;8.00
25514;BMP180;48128;54.242;10.280;2024-02-04T13:28:55;100717.00;;;8.00
25514;BMP180;48128;54.242;10.280;2024-02-04T13:31:22;100720.00;;;8.00
25514;BMP180;48128;54.242;10.280;2024-02-04T13:33:49;100723.00;;;8.00
25514;BMP180;48128;54.242;10.280;2024-02-04T13:36:18;100708.00;;;8.00
25514;BMP180;48128;54.242;10.280;2024-02-04T13:38:45;100716.00;;;8.10
25514;BMP180;48128;54.242;10.280;2024-02-04T13:41:14;100711.00;;;8.10
25514;BMP180;48128;54.242;10.280;2024-02-04T13:43:43;100706.00;;;8.20
25514;BMP180;48128;54.242;10.280;2024-02-04T13:46:10;100713.00;;;8.20
25514;BMP180;48128;54.242;10.280;2024-02-04T13:48:37;100709.00;;;8.20
25514;BMP180;48128;54.242;10.280;2024-02-04T13:51:04;100709.00;;;8.20
25514;BMP180;48128;54.242;10.280;2024-02-04T13:53:34;100721.00;;;8.20
25514;BMP180;48128;54.242;10.280;2024-02-04T13:56:02;100718.00;;;8.20
25514;BMP180;48128;54.242;10.280;2024-02-04T13:58:29;100714.00;;;8.20
25514;BMP180;48128;54.242;10.280;2024-02-04T14:00:56;100712.00;;;8.20
25514;BMP180;48128;54.242;10.280;2024-02-04T14:03:23;100699.00;;;8.20
25514;BMP180;48128;54.242;10.280;2024-02-04T14:05:50;100703.00;;;8.20
25514;BMP180;48128;54.242;10.280;2024-02-04T14:08:17;100701.00;;;8.20